sensor_id;sensor_type;location;lat;lon;timestamp;P1;durP1;ratioP1;P2;durP2;ratioP2
40591;SDS011;26301;42.832;23.918;2022-11-14T00:00:40;15.23;;;9.43;;
40591;SDS011;26301;42.832;23.918;2022-11-14T00:03:10;13.93;;;9.37;;
40591;SDS011;26301;42.832;23.918;2022-11-14T00:05:40;17.10;;;9.30;;
40591;SDS011;26301;42.832;23.918;2022-11-14T00:08:17;14.30;;;9.27;;
40591;SDS011;26301;42.832;23.918;2022-11-14T00:10:50;14.80;;;10.13;;
40591;SDS011;26301;42.832;23.918;2022-11-14T00:13:19;16.20;;;10.17;;
40591;SDS011;26301;42.832;23.918;2022-11-14T00:15:49;17.23;;;10.30;;
40591;SDS011;26301;42.832;23.918;2022-11-14T00:18:18;17.03;;;10.70;;
40591;SDS011;26301;42.832;23.918;2022-11-14T00:20:50;17.50;;;9.43;;
40591;SDS011;26301;42.832;23.918;2022-11-14T00:23:19;31.42;;;12.68;;
40591;SDS011;26301;42.832;23.918;2022-11-14T00:25:45;31.13;;;14.60;;
40591;SDS011;26301;42.832;23.918;2022-11-14T00:28:12;39.80;;;15.73;;
40591;SDS011;26301;42.832;23.918;2022-11-14T00:30:38;22.33;;;12.63;;
40591;SDS011;26301;42.832;23.918;2022-11-14T00:33:04;20.63;;;11.43;;
40591;SDS011;26301;42.832;23.918;2022-11-14T00:35:30;14.57;;;9.43;;
40591;SDS011;26301;42.832;23.918;2022-11-14T00:38:08;19.83;;;8.15;;
40591;SDS011;26301;42.832;23.918;2022-11-14T00:40:34;17.37;;;9.67;;
40591;SDS011;26301;42.832;23.918;2022-11-14T00:43:03;18.27;;;8.45;;
40591;SDS011;26301;42.832;23.918;2022-11-14T00:45:29;16.53;;;7.97;;
40591;SDS011;26301;42.832;23.918;2022-11-14T00:47:55;13.43;;;8.17;;
40591;SDS011;26301;42.832;23.918;2022-11-14T00:50:21;18.63;;;9.27;;
40591;SDS011;26301;42.832;23.918;2022-11-14T00:52:47;15.27;;;8.40;;
40591;SDS011;26301;42.832;23.918;2022-11-14T00:55:13;15.63;;;9.33;;
40591;SDS011;26301;42.832;23.918;2022-11-14T00:57:39;17.37;;;8.33;;
40591;SDS011;26301;42.832;23.918;2022-11-14T01:00:05;13.47;;;7.33;;
40591;SDS011;26301;42.832;23.918;2022-11-14T01:02:31;14.82;;;7.68;;
40591;SDS011;26301;42.832;23.918;2022-11-14T01:05:00;12.45;;;7.72;;
40591;SDS011;26301;42.832;23.918;2022-11-14T01:07:27;10.97;;;6.80;;
40591;SDS011;26301;42.832;23.918;2022-11-14T01:09:52;12.53;;;6.40;;
40591;SDS011;26301;42.832;23.918;2022-11-14T01:12:18;12.77;;;6.90;;
40591;SDS011;26301;42.832;23.918;2022-11-14T01:14:44;17.43;;;7.40;;
40591;SDS011;26301;42.832;23.918;2022-11-14T01:17:10;15.38;;;8.10;;
40591;SDS011;26301;42.832;23.918;2022-11-14T01:19:36;16.80;;;7.27;;
40591;SDS011;26301;42.832;23.918;2022-11-14T01:22:02;15.13;;;8.70;;
40591;SDS011;26301;42.832;23.918;2022-11-14T01:24:27;16.37;;;9.80;;
40591;SDS011;26301;42.832;23.918;2022-11-14T01:26:56;18.03;;;9.97;;
40591;SDS011;26301;42.832;23.918;2022-11-14T01:29:22;22.97;;;9.77;;
40591;SDS011;26301;42.832;23.918;2022-11-14T01:31:48;16.43;;;9.07;;
40591;SDS011;26301;42.832;23.918;2022-11-14T01:34:14;15.50;;;8.37;;
40591;SDS011;26301;42.832;23.918;2022-11-14T01:36:40;12.98;;;7.57;;
40591;SDS011;26301;42.832;23.918;2022-11-14T01:39:06;10.87;;;7.07;;
40591;SDS011;26301;42.832;23.918;2022-11-14T01:41:31;16.27;;;7.03;;
40591;SDS011;26301;42.832;23.918;2022-11-14T01:43:57;11.97;;;7.23;;
40591;SDS011;26301;42.832;23.918;2022-11-14T01:46:30;11.93;;;6.60;;
40591;SDS011;26301;42.832;23.918;2022-11-14T01:49:04;12.87;;;7.03;;
40591;SDS011;26301;42.832;23.918;2022-11-14T01:51:49;13.07;;;7.03;;
40591;SDS011;26301;42.832;23.918;2022-11-14T01:54:27;12.33;;;6.77;;
40591;SDS011;26301;42.832;23.918;2022-11-14T01:57:02;15.57;;;8.20;;
40591;SDS011;26301;42.832;23.918;2022-11-14T01:59:33;13.60;;;9.03;;
40591;SDS011;26301;42.832;23.918;2022-11-14T02:02:07;17.27;;;9.80;;
40591;SDS011;26301;42.832;23.918;2022-11-14T02:05:06;12.97;;;8.40;;
40591;SDS011;26301;42.832;23.918;2022-11-14T02:07:32;12.53;;;6.77;;
40591;SDS011;26301;42.832;23.918;2022-11-14T02:10:03;11.10;;;7.70;;
40591;SDS011;26301;42.832;23.918;2022-11-14T02:12:31;13.70;;;6.37;;
40591;SDS011;26301;42.832;23.918;2022-11-14T02:14:57;10.27;;;6.70;;
40591;SDS011;26301;42.832;23.918;2022-11-14T02:17:25;10.73;;;6.37;;
40591;SDS011;26301;42.832;23.918;2022-11-14T02:22:38;12.50;;;7.10;;
40591;SDS011;26301;42.832;23.918;2022-11-14T02:25:06;8.47;;;5.90;;
40591;SDS011;26301;42.832;23.918;2022-11-14T02:27:33;9.60;;;6.30;;
40591;SDS011;26301;42.832;23.918;2022-11-14T02:30:04;9.30;;;6.40;;
40591;SDS011;26301;42.832;23.918;2022-11-14T02:32:33;12.77;;;6.50;;
40591;SDS011;26301;42.832;23.918;2022-11-14T02:34:59;9.60;;;6.63;;
40591;SDS011;26301;42.832;23.918;2022-11-14T02:37:31;9.75;;;6.28;;
40591;SDS011;26301;42.832;23.918;2022-11-14T02:40:04;8.35;;;5.93;;
40591;SDS011;26301;42.832;23.918;2022-11-14T02:42:30;16.20;;;7.77;;
40591;SDS011;26301;42.832;23.918;2022-11-14T02:44:56;9.93;;;6.47;;
40591;SDS011;26301;42.832;23.918;2022-11-14T02:47:22;10.03;;;6.47;;
40591;SDS011;26301;42.832;23.918;2022-11-14T02:49:49;9.63;;;6.30;;
40591;SDS011;26301;42.832;23.918;2022-11-14T02:52:15;8.05;;;5.75;;
40591;SDS011;26301;42.832;23.918;2022-11-14T02:54:42;9.07;;;5.83;;
40591;SDS011;26301;42.832;23.918;2022-11-14T02:57:08;9.50;;;5.73;;
40591;SDS011;26301;42.832;23.918;2022-11-14T02:59:34;10.03;;;6.20;;
40591;SDS011;26301;42.832;23.918;2022-11-14T03:01:59;9.07;;;5.63;;
40591;SDS011;26301;42.832;23.918;2022-11-14T03:04:26;12.57;;;5.37;;
40591;SDS011;26301;42.832;23.918;2022-11-14T03:06:54;12.73;;;6.53;;
40591;SDS011;26301;42.832;23.918;2022-11-14T03:09:20;9.83;;;5.80;;
40591;SDS011;26301;42.832;23.918;2022-11-14T03:11:46;8.97;;;5.77;;
40591;SDS011;26301;42.832;23.918;2022-11-14T03:14:11;10.10;;;6.10;;
40591;SDS011;26301;42.832;23.918;2022-11-14T03:16:37;11.70;;;6.03;;
40591;SDS011;26301;42.832;23.918;2022-11-14T03:19:03;9.07;;;5.87;;
40591;SDS011;26301;42.832;23.918;2022-11-14T03:21:29;13.90;;;6.97;;
40591;SDS011;26301;42.832;23.918;2022-11-14T03:23:55;10.27;;;5.83;;
40591;SDS011;26301;42.832;23.918;2022-11-14T03:26:21;13.00;;;6.80;;
40591;SDS011;26301;42.832;23.918;2022-11-14T03:28:47;10.93;;;7.07;;
40591;SDS011;26301;42.832;23.918;2022-11-14T03:31:12;8.90;;;6.40;;
40591;SDS011;26301;42.832;23.918;2022-11-14T03:33:39;9.53;;;6.17;;
40591;SDS011;26301;42.832;23.918;2022-11-14T03:36:05;12.20;;;6.17;;
40591;SDS011;26301;42.832;23.918;2022-11-14T03:38:32;10.10;;;6.40;;
40591;SDS011;26301;42.832;23.918;2022-11-14T03:40:58;10.10;;;6.47;;
40591;SDS011;26301;42.832;23.918;2022-11-14T03:43:25;13.40;;;8.23;;
40591;SDS011;26301;42.832;23.918;2022-11-14T03:45:56;11.97;;;7.83;;
40591;SDS011;26301;42.832;23.918;2022-11-14T03:48:23;13.93;;;8.80;;
40591;SDS011;26301;42.832;23.918;2022-11-14T03:50:49;10.82;;;6.40;;
40591;SDS011;26301;42.832;23.918;2022-11-14T03:53:15;10.70;;;6.63;;
40591;SDS011;26301;42.832;23.918;2022-11-14T03:55:44;11.53;;;7.10;;
40591;SDS011;26301;42.832;23.918;2022-11-14T03:58:10;12.80;;;7.33;;
40591;SDS011;26301;42.832;23.918;2022-11-14T04:00:35;9.57;;;5.77;;
40591;SDS011;26301;42.832;23.918;2022-11-14T04:03:01;11.80;;;5.93;;
40591;SDS011;26301;42.832;23.918;2022-11-14T04:05:27;12.00;;;6.37;;
40591;SDS011;26301;42.832;23.918;2022-11-14T04:07:53;11.03;;;6.80;;
40591;SDS011;26301;42.832;23.918;2022-11-14T04:10:18;10.80;;;6.80;;
40591;SDS011;26301;42.832;23.918;2022-11-14T04:12:48;12.07;;;8.07;;
40591;SDS011;26301;42.832;23.918;2022-11-14T04:15:15;10.03;;;7.10;;
40591;SDS011;26301;42.832;23.918;2022-11-14T04:17:41;8.27;;;6.17;;
40591;SDS011;26301;42.832;23.918;2022-11-14T04:20:08;10.60;;;6.63;;
40591;SDS011;26301;42.832;23.918;2022-11-14T04:22:34;9.07;;;6.47;;
40591;SDS011;26301;42.832;23.918;2022-11-14T04:25:00;13.33;;;8.07;;
40591;SDS011;26301;42.832;23.918;2022-11-14T04:27:26;11.47;;;7.20;;
40591;SDS011;26301;42.832;23.918;2022-11-14T04:29:51;12.17;;;7.27;;
40591;SDS011;26301;42.832;23.918;2022-11-14T04:32:17;15.95;;;7.75;;
40591;SDS011;26301;42.832;23.918;2022-11-14T04:34:43;14.70;;;7.73;;
40591;SDS011;26301;42.832;23.918;2022-11-14T04:37:09;11.60;;;7.77;;
40591;SDS011;26301;42.832;23.918;2022-11-14T04:39:34;14.07;;;8.77;;
40591;SDS011;26301;42.832;23.918;2022-11-14T04:42:00;14.33;;;8.70;;
40591;SDS011;26301;42.832;23.918;2022-11-14T04:44:26;19.97;;;9.10;;
40591;SDS011;26301;42.832;23.918;2022-11-14T04:46:52;16.10;;;9.47;;
40591;SDS011;26301;42.832;23.918;2022-11-14T04:49:17;14.03;;;7.73;;
40591;SDS011;26301;42.832;23.918;2022-11-14T04:51:44;23.93;;;9.63;;
40591;SDS011;26301;42.832;23.918;2022-11-14T04:54:09;12.97;;;8.10;;
40591;SDS011;26301;42.832;23.918;2022-11-14T04:56:35;13.80;;;8.37;;
40591;SDS011;26301;42.832;23.918;2022-11-14T04:59:01;13.67;;;8.07;;
40591;SDS011;26301;42.832;23.918;2022-11-14T05:01:27;14.63;;;8.57;;
40591;SDS011;26301;42.832;23.918;2022-11-14T05:03:53;13.13;;;8.57;;
40591;SDS011;26301;42.832;23.918;2022-11-14T05:06:19;12.93;;;8.87;;
40591;SDS011;26301;42.832;23.918;2022-11-14T05:08:45;14.73;;;8.63;;
40591;SDS011;26301;42.832;23.918;2022-11-14T05:11:15;13.03;;;8.43;;
40591;SDS011;26301;42.832;23.918;2022-11-14T05:13:43;14.27;;;8.13;;
40591;SDS011;26301;42.832;23.918;2022-11-14T05:16:09;14.20;;;8.53;;
40591;SDS011;26301;42.832;23.918;2022-11-14T05:18:35;14.43;;;8.27;;
40591;SDS011;26301;42.832;23.918;2022-11-14T05:21:02;14.10;;;7.50;;
40591;SDS011;26301;42.832;23.918;2022-11-14T05:23:28;10.53;;;6.53;;
40591;SDS011;26301;42.832;23.918;2022-11-14T05:26:07;13.67;;;7.73;;
40591;SDS011;26301;42.832;23.918;2022-11-14T05:28:34;11.90;;;7.37;;
40591;SDS011;26301;42.832;23.918;2022-11-14T05:31:03;11.47;;;7.17;;
40591;SDS011;26301;42.832;23.918;2022-11-14T05:33:31;12.97;;;7.47;;
40591;SDS011;26301;42.832;23.918;2022-11-14T05:36:00;16.50;;;8.30;;
40591;SDS011;26301;42.832;23.918;2022-11-14T05:38:28;16.33;;;8.93;;
40591;SDS011;26301;42.832;23.918;2022-11-14T05:40:53;13.70;;;8.50;;
40591;SDS011;26301;42.832;23.918;2022-11-14T05:43:19;14.17;;;9.60;;
40591;SDS011;26301;42.832;23.918;2022-11-14T05:45:44;17.43;;;9.70;;
40591;SDS011;26301;42.832;23.918;2022-11-14T05:48:10;14.63;;;9.97;;
40591;SDS011;26301;42.832;23.918;2022-11-14T05:50:36;14.03;;;9.60;;
40591;SDS011;26301;42.832;23.918;2022-11-14T05:53:02;15.10;;;10.57;;
40591;SDS011;26301;42.832;23.918;2022-11-14T05:55:28;15.87;;;10.47;;
40591;SDS011;26301;42.832;23.918;2022-11-14T05:57:56;14.17;;;10.57;;
40591;SDS011;26301;42.832;23.918;2022-11-14T06:00:23;16.03;;;9.10;;
40591;SDS011;26301;42.832;23.918;2022-11-14T06:02:52;14.00;;;9.97;;
40591;SDS011;26301;42.832;23.918;2022-11-14T06:05:19;12.70;;;8.73;;
40591;SDS011;26301;42.832;23.918;2022-11-14T06:07:46;14.77;;;9.27;;
40591;SDS011;26301;42.832;23.918;2022-11-14T06:10:12;15.40;;;10.03;;
40591;SDS011;26301;42.832;23.918;2022-11-14T06:12:38;16.33;;;8.30;;
40591;SDS011;26301;42.832;23.918;2022-11-14T06:15:04;17.10;;;9.60;;
40591;SDS011;26301;42.832;23.918;2022-11-14T06:17:30;17.80;;;8.97;;
40591;SDS011;26301;42.832;23.918;2022-11-14T06:19:56;15.90;;;10.20;;
40591;SDS011;26301;42.832;23.918;2022-11-14T06:22:22;16.23;;;9.17;;
40591;SDS011;26301;42.832;23.918;2022-11-14T06:24:47;19.70;;;9.77;;
40591;SDS011;26301;42.832;23.918;2022-11-14T06:27:13;17.57;;;9.57;;
40591;SDS011;26301;42.832;23.918;2022-11-14T06:29:39;14.48;;;9.75;;
40591;SDS011;26301;42.832;23.918;2022-11-14T06:32:05;14.95;;;8.48;;
40591;SDS011;26301;42.832;23.918;2022-11-14T06:34:31;19.30;;;9.50;;
40591;SDS011;26301;42.832;23.918;2022-11-14T06:36:57;13.68;;;9.23;;
40591;SDS011;26301;42.832;23.918;2022-11-14T06:39:22;13.90;;;9.60;;
40591;SDS011;26301;42.832;23.918;2022-11-14T06:41:48;15.77;;;8.85;;
40591;SDS011;26301;42.832;23.918;2022-11-14T06:44:14;16.65;;;8.88;;
40591;SDS011;26301;42.832;23.918;2022-11-14T06:46:40;11.73;;;7.70;;
40591;SDS011;26301;42.832;23.918;2022-11-14T06:49:05;14.45;;;9.07;;
40591;SDS011;26301;42.832;23.918;2022-11-14T06:51:31;15.35;;;8.68;;
40591;SDS011;26301;42.832;23.918;2022-11-14T06:53:57;14.18;;;7.70;;
40591;SDS011;26301;42.832;23.918;2022-11-14T06:56:23;13.15;;;8.07;;
40591;SDS011;26301;42.832;23.918;2022-11-14T06:58:49;9.88;;;7.22;;
40591;SDS011;26301;42.832;23.918;2022-11-14T07:01:16;13.80;;;8.43;;
40591;SDS011;26301;42.832;23.918;2022-11-14T07:03:44;9.25;;;7.07;;
40591;SDS011;26301;42.832;23.918;2022-11-14T07:06:11;10.45;;;7.78;;
40591;SDS011;26301;42.832;23.918;2022-11-14T07:08:39;9.95;;;6.45;;
40591;SDS011;26301;42.832;23.918;2022-11-14T07:11:10;9.70;;;6.22;;
40591;SDS011;26301;42.832;23.918;2022-11-14T07:13:47;9.80;;;7.03;;
40591;SDS011;26301;42.832;23.918;2022-11-14T07:16:23;9.05;;;6.53;;
40591;SDS011;26301;42.832;23.918;2022-11-14T07:18:53;9.57;;;6.47;;
40591;SDS011;26301;42.832;23.918;2022-11-14T07:21:20;11.48;;;6.18;;
40591;SDS011;26301;42.832;23.918;2022-11-14T07:23:46;7.90;;;5.93;;
40591;SDS011;26301;42.832;23.918;2022-11-14T07:26:11;11.68;;;5.45;;
40591;SDS011;26301;42.832;23.918;2022-11-14T07:28:41;6.93;;;5.53;;
40591;SDS011;26301;42.832;23.918;2022-11-14T07:31:10;8.60;;;5.30;;
40591;SDS011;26301;42.832;23.918;2022-11-14T07:33:40;10.60;;;6.20;;
40591;SDS011;26301;42.832;23.918;2022-11-14T07:36:07;8.10;;;5.32;;
40591;SDS011;26301;42.832;23.918;2022-11-14T07:38:34;8.20;;;6.47;;
40591;SDS011;26301;42.832;23.918;2022-11-14T07:41:02;11.65;;;6.47;;
40591;SDS011;26301;42.832;23.918;2022-11-14T07:43:32;12.73;;;6.40;;
40591;SDS011;26301;42.832;23.918;2022-11-14T07:45:58;8.25;;;6.60;;
40591;SDS011;26301;42.832;23.918;2022-11-14T07:48:25;9.18;;;5.63;;
40591;SDS011;26301;42.832;23.918;2022-11-14T07:50:50;10.02;;;7.03;;
40591;SDS011;26301;42.832;23.918;2022-11-14T07:53:17;8.05;;;6.75;;
40591;SDS011;26301;42.832;23.918;2022-11-14T07:55:43;7.63;;;5.80;;
40591;SDS011;26301;42.832;23.918;2022-11-14T07:58:09;11.38;;;5.90;;
40591;SDS011;26301;42.832;23.918;2022-11-14T08:00:35;7.80;;;5.97;;
40591;SDS011;26301;42.832;23.918;2022-11-14T08:03:01;8.90;;;6.07;;
40591;SDS011;26301;42.832;23.918;2022-11-14T08:05:26;12.15;;;5.88;;
40591;SDS011;26301;42.832;23.918;2022-11-14T08:07:52;9.48;;;4.82;;
40591;SDS011;26301;42.832;23.918;2022-11-14T08:10:18;10.27;;;5.53;;
40591;SDS011;26301;42.832;23.918;2022-11-14T08:12:45;8.32;;;5.03;;
40591;SDS011;26301;42.832;23.918;2022-11-14T08:15:12;6.47;;;4.88;;
40591;SDS011;26301;42.832;23.918;2022-11-14T08:17:38;6.97;;;5.20;;
40591;SDS011;26301;42.832;23.918;2022-11-14T08:20:04;7.45;;;5.10;;
40591;SDS011;26301;42.832;23.918;2022-11-14T08:22:32;7.82;;;4.47;;
40591;SDS011;26301;42.832;23.918;2022-11-14T08:24:58;9.77;;;4.50;;
40591;SDS011;26301;42.832;23.918;2022-11-14T08:27:24;6.13;;;4.25;;
40591;SDS011;26301;42.832;23.918;2022-11-14T08:29:49;8.52;;;4.78;;
40591;SDS011;26301;42.832;23.918;2022-11-14T08:32:16;6.20;;;4.72;;
40591;SDS011;26301;42.832;23.918;2022-11-14T08:34:44;6.82;;;4.47;;
40591;SDS011;26301;42.832;23.918;2022-11-14T08:37:10;6.53;;;4.55;;
40591;SDS011;26301;42.832;23.918;2022-11-14T08:39:35;7.03;;;4.57;;
40591;SDS011;26301;42.832;23.918;2022-11-14T08:42:01;7.00;;;4.68;;
40591;SDS011;26301;42.832;23.918;2022-11-14T08:44:27;10.55;;;7.43;;
40591;SDS011;26301;42.832;23.918;2022-11-14T08:46:53;11.55;;;7.55;;
40591;SDS011;26301;42.832;23.918;2022-11-14T08:49:18;8.55;;;6.35;;
40591;SDS011;26301;42.832;23.918;2022-11-14T08:51:45;13.73;;;8.07;;
40591;SDS011;26301;42.832;23.918;2022-11-14T08:54:10;6.20;;;4.53;;
40591;SDS011;26301;42.832;23.918;2022-11-14T08:56:36;7.32;;;4.85;;
40591;SDS011;26301;42.832;23.918;2022-11-14T08:59:02;9.18;;;4.78;;
40591;SDS011;26301;42.832;23.918;2022-11-14T09:01:28;37.05;;;24.27;;
40591;SDS011;26301;42.832;23.918;2022-11-14T09:03:56;8.65;;;6.10;;
40591;SDS011;26301;42.832;23.918;2022-11-14T09:06:22;6.80;;;5.28;;
40591;SDS011;26301;42.832;23.918;2022-11-14T09:08:48;37.78;;;22.75;;
40591;SDS011;26301;42.832;23.918;2022-11-14T09:11:16;13.23;;;6.97;;
40591;SDS011;26301;42.832;23.918;2022-11-14T09:13:42;17.45;;;10.25;;
40591;SDS011;26301;42.832;23.918;2022-11-14T09:16:08;11.02;;;7.82;;
40591;SDS011;26301;42.832;23.918;2022-11-14T09:18:34;8.88;;;6.28;;
40591;SDS011;26301;42.832;23.918;2022-11-14T09:21:01;37.80;;;19.65;;
40591;SDS011;26301;42.832;23.918;2022-11-14T09:23:29;12.85;;;8.52;;
40591;SDS011;26301;42.832;23.918;2022-11-14T09:25:55;8.77;;;5.97;;
40591;SDS011;26301;42.832;23.918;2022-11-14T09:28:22;14.68;;;8.93;;
40591;SDS011;26301;42.832;23.918;2022-11-14T09:30:48;19.13;;;9.50;;
40591;SDS011;26301;42.832;23.918;2022-11-14T09:33:14;10.98;;;7.20;;
40591;SDS011;26301;42.832;23.918;2022-11-14T09:35:40;13.98;;;6.53;;
40591;SDS011;26301;42.832;23.918;2022-11-14T09:38:10;9.15;;;6.32;;
40591;SDS011;26301;42.832;23.918;2022-11-14T09:45:55;12.88;;;9.18;;
40591;SDS011;26301;42.832;23.918;2022-11-14T09:48:22;9.27;;;6.70;;
40591;SDS011;26301;42.832;23.918;2022-11-14T09:51:04;12.10;;;8.57;;
40591;SDS011;26301;42.832;23.918;2022-11-14T09:53:39;11.10;;;7.68;;
40591;SDS011;26301;42.832;23.918;2022-11-14T09:56:12;9.57;;;7.97;;
40591;SDS011;26301;42.832;23.918;2022-11-14T09:58:43;14.82;;;8.27;;
40591;SDS011;26301;42.832;23.918;2022-11-14T10:01:25;11.48;;;7.80;;
40591;SDS011;26301;42.832;23.918;2022-11-14T10:07:15;8.60;;;6.55;;
40591;SDS011;26301;42.832;23.918;2022-11-14T10:10:02;10.30;;;7.93;;
40591;SDS011;26301;42.832;23.918;2022-11-14T10:12:42;9.95;;;7.03;;
40591;SDS011;26301;42.832;23.918;2022-11-14T10:15:33;9.50;;;6.47;;
40591;SDS011;26301;42.832;23.918;2022-11-14T10:21:06;10.07;;;7.55;;
40591;SDS011;26301;42.832;23.918;2022-11-14T10:23:46;8.93;;;6.47;;
40591;SDS011;26301;42.832;23.918;2022-11-14T10:26:33;11.00;;;6.50;;
40591;SDS011;26301;42.832;23.918;2022-11-14T10:34:46;9.63;;;7.28;;
40591;SDS011;26301;42.832;23.918;2022-11-14T10:48:37;9.13;;;7.00;;
40591;SDS011;26301;42.832;23.918;2022-11-14T10:54:26;8.00;;;6.20;;
40591;SDS011;26301;42.832;23.918;2022-11-14T10:57:02;8.55;;;6.35;;
40591;SDS011;26301;42.832;23.918;2022-11-14T10:59:27;9.75;;;6.30;;
40591;SDS011;26301;42.832;23.918;2022-11-14T11:01:54;10.00;;;6.32;;
40591;SDS011;26301;42.832;23.918;2022-11-14T11:04:34;7.93;;;6.10;;
40591;SDS011;26301;42.832;23.918;2022-11-14T11:09:33;8.57;;;5.90;;
40591;SDS011;26301;42.832;23.918;2022-11-14T11:12:20;8.00;;;5.82;;
40591;SDS011;26301;42.832;23.918;2022-11-14T11:14:49;9.77;;;6.15;;
40591;SDS011;26301;42.832;23.918;2022-11-14T11:17:56;10.07;;;5.78;;
40591;SDS011;26301;42.832;23.918;2022-11-14T11:23:04;7.20;;;6.00;;
40591;SDS011;26301;42.832;23.918;2022-11-14T11:25:32;9.20;;;6.28;;
40591;SDS011;26301;42.832;23.918;2022-11-14T11:28:17;7.50;;;5.75;;
40591;SDS011;26301;42.832;23.918;2022-11-14T11:30:54;8.88;;;5.75;;
40591;SDS011;26301;42.832;23.918;2022-11-14T11:33:25;8.55;;;5.95;;
40591;SDS011;26301;42.832;23.918;2022-11-14T11:36:00;10.23;;;6.72;;
40591;SDS011;26301;42.832;23.918;2022-11-14T11:38:31;8.85;;;6.30;;
40591;SDS011;26301;42.832;23.918;2022-11-14T11:40:59;9.23;;;6.07;;
40591;SDS011;26301;42.832;23.918;2022-11-14T11:49:10;10.50;;;5.95;;
40591;SDS011;26301;42.832;23.918;2022-11-14T11:51:42;9.18;;;5.90;;
40591;SDS011;26301;42.832;23.918;2022-11-14T11:54:14;9.43;;;6.45;;
40591;SDS011;26301;42.832;23.918;2022-11-14T11:56:44;8.90;;;5.85;;
40591;SDS011;26301;42.832;23.918;2022-11-14T12:02:19;7.65;;;5.78;;
40591;SDS011;26301;42.832;23.918;2022-11-14T12:07:19;7.82;;;5.93;;
40591;SDS011;26301;42.832;23.918;2022-11-14T12:09:49;8.80;;;6.10;;
40591;SDS011;26301;42.832;23.918;2022-11-14T12:15:09;10.30;;;6.93;;
40591;SDS011;26301;42.832;23.918;2022-11-14T12:23:16;8.20;;;6.25;;
40591;SDS011;26301;42.832;23.918;2022-11-14T12:32:32;9.15;;;6.35;;
40591;SDS011;26301;42.832;23.918;2022-11-14T12:35:04;8.45;;;6.32;;
40591;SDS011;26301;42.832;23.918;2022-11-14T12:37:42;8.77;;;6.40;;
40591;SDS011;26301;42.832;23.918;2022-11-14T12:40:17;8.27;;;6.63;;
40591;SDS011;26301;42.832;23.918;2022-11-14T12:42:59;9.38;;;7.32;;
40591;SDS011;26301;42.832;23.918;2022-11-14T12:48:14;10.50;;;6.72;;
40591;SDS011;26301;42.832;23.918;2022-11-14T12:50:53;10.48;;;7.35;;
40591;SDS011;26301;42.832;23.918;2022-11-14T13:06:59;8.80;;;6.47;;
40591;SDS011;26301;42.832;23.918;2022-11-14T13:12:39;8.73;;;6.40;;
40591;SDS011;26301;42.832;23.918;2022-11-14T13:15:29;9.38;;;6.22;;
40591;SDS011;26301;42.832;23.918;2022-11-14T13:18:18;7.15;;;6.15;;
40591;SDS011;26301;42.832;23.918;2022-11-14T13:21:18;8.57;;;6.13;;
40591;SDS011;26301;42.832;23.918;2022-11-14T13:24:07;9.32;;;7.18;;
40591;SDS011;26301;42.832;23.918;2022-11-14T13:26:35;8.02;;;6.10;;
40591;SDS011;26301;42.832;23.918;2022-11-14T13:29:01;8.75;;;6.50;;
40591;SDS011;26301;42.832;23.918;2022-11-14T13:33:59;7.93;;;6.40;;
40591;SDS011;26301;42.832;23.918;2022-11-14T13:45:33;9.75;;;6.85;;
40591;SDS011;26301;42.832;23.918;2022-11-14T13:51:16;7.85;;;6.65;;
40591;SDS011;26301;42.832;23.918;2022-11-14T13:53:43;7.90;;;6.50;;
40591;SDS011;26301;42.832;23.918;2022-11-14T13:56:22;10.43;;;6.88;;
40591;SDS011;26301;42.832;23.918;2022-11-14T14:01:50;9.45;;;5.85;;
40591;SDS011;26301;42.832;23.918;2022-11-14T14:10:33;9.98;;;7.60;;
40591;SDS011;26301;42.832;23.918;2022-11-14T14:15:56;13.45;;;8.15;;
40591;SDS011;26301;42.832;23.918;2022-11-14T14:18:47;13.10;;;7.07;;
40591;SDS011;26301;42.832;23.918;2022-11-14T14:23:57;13.50;;;7.47;;
40591;SDS011;26301;42.832;23.918;2022-11-14T14:26:41;10.18;;;6.90;;
40591;SDS011;26301;42.832;23.918;2022-11-14T14:32:17;16.23;;;7.38;;
40591;SDS011;26301;42.832;23.918;2022-11-14T14:34:44;13.93;;;8.68;;
40591;SDS011;26301;42.832;23.918;2022-11-14T14:37:20;10.60;;;8.00;;
40591;SDS011;26301;42.832;23.918;2022-11-14T14:39:54;13.05;;;10.13;;
40591;SDS011;26301;42.832;23.918;2022-11-14T14:42:21;15.48;;;10.90;;
40591;SDS011;26301;42.832;23.918;2022-11-14T14:44:48;14.77;;;10.50;;
40591;SDS011;26301;42.832;23.918;2022-11-14T14:47:15;14.98;;;10.25;;
40591;SDS011;26301;42.832;23.918;2022-11-14T14:49:49;16.75;;;10.50;;
40591;SDS011;26301;42.832;23.918;2022-11-14T14:52:19;20.90;;;11.80;;
40591;SDS011;26301;42.832;23.918;2022-11-14T14:54:53;27.95;;;18.55;;
40591;SDS011;26301;42.832;23.918;2022-11-14T14:57:20;18.77;;;13.88;;
40591;SDS011;26301;42.832;23.918;2022-11-14T14:59:57;23.48;;;14.63;;
40591;SDS011;26301;42.832;23.918;2022-11-14T15:02:27;42.08;;;27.38;;
40591;SDS011;26301;42.832;23.918;2022-11-14T15:04:54;40.53;;;24.85;;
40591;SDS011;26301;42.832;23.918;2022-11-14T15:07:22;32.38;;;20.38;;
40591;SDS011;26301;42.832;23.918;2022-11-14T15:09:59;24.98;;;16.83;;
40591;SDS011;26301;42.832;23.918;2022-11-14T15:12:27;19.58;;;13.65;;
40591;SDS011;26301;42.832;23.918;2022-11-14T15:14:55;18.58;;;13.48;;
40591;SDS011;26301;42.832;23.918;2022-11-14T15:17:23;19.05;;;13.20;;
40591;SDS011;26301;42.832;23.918;2022-11-14T15:19:53;15.75;;;11.27;;
40591;SDS011;26301;42.832;23.918;2022-11-14T15:22:20;14.88;;;11.02;;
40591;SDS011;26301;42.832;23.918;2022-11-14T15:27:43;22.70;;;13.52;;
40591;SDS011;26301;42.832;23.918;2022-11-14T15:32:59;17.83;;;11.48;;
40591;SDS011;26301;42.832;23.918;2022-11-14T15:35:30;16.48;;;11.27;;
40591;SDS011;26301;42.832;23.918;2022-11-14T15:40:36;19.65;;;13.30;;
40591;SDS011;26301;42.832;23.918;2022-11-14T15:46:01;21.67;;;13.15;;
40591;SDS011;26301;42.832;23.918;2022-11-14T15:48:28;24.27;;;15.57;;
40591;SDS011;26301;42.832;23.918;2022-11-14T15:50:54;16.27;;;10.80;;
40591;SDS011;26301;42.832;23.918;2022-11-14T15:55:47;15.77;;;9.85;;
40591;SDS011;26301;42.832;23.918;2022-11-14T15:58:13;12.60;;;9.00;;
40591;SDS011;26301;42.832;23.918;2022-11-14T16:00:41;12.68;;;8.30;;
40591;SDS011;26301;42.832;23.918;2022-11-14T16:03:15;12.25;;;9.68;;
40591;SDS011;26301;42.832;23.918;2022-11-14T16:05:43;16.33;;;9.00;;
40591;SDS011;26301;42.832;23.918;2022-11-14T16:08:10;14.07;;;9.07;;
40591;SDS011;26301;42.832;23.918;2022-11-14T16:10:36;15.23;;;9.68;;
40591;SDS011;26301;42.832;23.918;2022-11-14T16:13:03;12.57;;;8.88;;
40591;SDS011;26301;42.832;23.918;2022-11-14T16:15:29;12.45;;;9.00;;
40591;SDS011;26301;42.832;23.918;2022-11-14T16:17:55;14.20;;;10.02;;
40591;SDS011;26301;42.832;23.918;2022-11-14T16:20:25;15.00;;;11.77;;
40591;SDS011;26301;42.832;23.918;2022-11-14T16:22:53;21.37;;;11.97;;
40591;SDS011;26301;42.832;23.918;2022-11-14T16:25:22;24.83;;;13.10;;
40591;SDS011;26301;42.832;23.918;2022-11-14T16:27:51;18.65;;;12.30;;
40591;SDS011;26301;42.832;23.918;2022-11-14T16:30:18;29.20;;;16.73;;
40591;SDS011;26301;42.832;23.918;2022-11-14T16:32:45;36.38;;;22.27;;
40591;SDS011;26301;42.832;23.918;2022-11-14T16:37:40;34.85;;;23.02;;
40591;SDS011;26301;42.832;23.918;2022-11-14T16:40:06;33.13;;;19.77;;
40591;SDS011;26301;42.832;23.918;2022-11-14T16:42:43;18.00;;;11.90;;
40591;SDS011;26301;42.832;23.918;2022-11-14T16:45:09;14.80;;;10.73;;
40591;SDS011;26301;42.832;23.918;2022-11-14T16:47:36;14.20;;;9.77;;